Maersk Iowa — KABL — position and weather

sailwx.info

Track history (hours):
 
Tides and Currents Weather Stations Pressure Air Temp Water Temp Dewpoint Dewpoint Depression Visibility Wind Speed Wind Dir Waves Ship Positions

Maersk Iowa

Owner: FARRELL LINES INC, Norfolk, VA. More information available from US FCC via Universal Licensing System and Coast Guard Vessel Documentation Center.

Last reported at 2014-Nov-24 20:13 UTC. Time now 2014-Nov-27 19:39 UTC.
Position N 38°53' W 073°59'.

Length 292 m; draft 12.5 m.

Type: Ship (hazmat cat A). MMSI: 367606000.

Date/timePositionNaut miles runAvg speedWind from/ knotsBaromVisibWave heightAir tempDewpointWater temp
2014-Nov-24 20:13N 38°53' W 073°59'4111.2
2014-Nov-24 16:32N 39°34' W 073°52'1414.3
2014-Nov-24 15:33N 39°48' W 073°51'1614.7
2014-Nov-24 14:30N 40°03' W 073°50'1511.1
2014-Nov-24 13:10N 40°18' W 073°49'6 9.2
2014-Nov-24 12:32N 40°24' W 073°48'7 6.9
2014-Nov-24 11:33N 40°29' W 073°54'1110.7
2014-Nov-24 10:34N 40°37' W 074°03'5 4.9
2014-Nov-24 09:33N 40°39' W 074°09'1 0.6
2014-Nov-24 08:33N 40°40' W 074°09'0 0.0
2014-Nov-24 07:33N 40°40' W 074°09'0 0.0
2014-Nov-24 06:33N 40°40' W 074°09'0 0.0
2014-Nov-24 05:33N 40°40' W 074°09'0 0.0
2014-Nov-24 04:33N 40°40' W 074°09'0 0.0
2014-Nov-24 03:33N 40°40' W 074°09'0 0.0
2014-Nov-24 02:33N 40°40' W 074°09'0 0.0
2014-Nov-24 01:33N 40°40' W 074°09'0 0.0
2014-Nov-24 00:33N 40°40' W 074°09'0 0.0
2014-Nov-23 23:33N 40°40' W 074°09'0 0.1
2014-Nov-23 22:33N 40°40' W 074°09'4 4.4
2014-Nov-23 21:33N 40°38' W 074°03'1111.3
2014-Nov-23 20:33N 40°29' W 073°54'11 8.9
2014-Nov-23 19:22N 40°27' W 073°41'9 9.4
2014-Nov-23 18:21N 40°28' W 073°28'2815.7
2014-Nov-23 16:33N 40°30' W 072°51'1717.5
2014-Nov-23 15:34N 40°31' W 072°28'1717.4
2014-Nov-23 14:34N 40°31' W 072°05'1717.3
2014-Nov-23 13:34N 40°32' W 071°43'1717.4
2014-Nov-23 12:34N 40°32' W 071°20'1717.4
2014-Nov-23 11:33N 40°33' W 070°57'1717.5
2014-Nov-23 10:34N 40°33' W 070°34'1817.5
2014-Nov-23 09:33N 40°33' W 070°11'1717.5
2014-Nov-23 08:34N 40°33' W 069°48'1717.2
2014-Nov-23 07:33N 40°33' W 069°25'1716.2
2014-Nov-23 06:30N 40°35' W 069°03'19915.9
2014-Nov-22 18:00N 42°12' W 065°12'90518.8 240 / 241024.010.8 7.0-0.011.0
2014-Nov-20 18:00N 47°48' W 045°24'   270 / 271022.910.8 10.0 5.6 8.0
2014-Nov-16 10:33N 58°44' W 004°13'1817.8
2014-Nov-16 09:34N 58°44' W 003°39'1918.8
2014-Nov-16 08:33N 58°43' W 003°02'1616.1
2014-Nov-16 07:33N 58°29' W 002°46'4915.6
2014-Nov-16 04:25N 57°57' W 001°35'1416.0
2014-Nov-16 03:33N 57°49' W 001°14'1616.0
2014-Nov-16 02:33N 57°39' W 000°51'32216.1
2014-Nov-15 06:31N 54°27' E 006°54'1617.1
2014-Nov-15 05:34N 54°18' E 007°16'1616.4
2014-Nov-15 04:33N 54°05' E 007°35'1615.7
2014-Nov-15 03:33N 53°52' E 007°50'1413.7
2014-Nov-15 02:33N 53°46' E 008°11'1413.9
2014-Nov-15 01:33N 53°37' E 008°29'2 2.2
2014-Nov-15 00:32N 53°36' E 008°31'0 0.0
2014-Nov-14 23:32N 53°36' E 008°31'0 0.0
2014-Nov-14 22:32N 53°36' E 008°31'0 0.0
2014-Nov-14 21:32N 53°36' E 008°31'0 0.0
2014-Nov-14 20:32N 53°36' E 008°31'  
Track history (hours):
 
Tides and Currents Weather Stations Pressure Air Temp Water Temp Dewpoint Dewpoint Depression Visibility Wind Speed Wind Dir Waves Ship Positions

Maersk Iowa

Owner: FARRELL LINES INC, Norfolk, VA. More information available from US FCC via Universal Licensing System and Coast Guard Vessel Documentation Center.

Last reported at 2014-Nov-24 20:13 UTC. Time now 2014-Nov-27 19:39 UTC.
Position N 38°53' W 073°59'.

Length 292 m; draft 12.5 m.

Type: Ship (hazmat cat A). MMSI: 367606000.

Date/timePositionNaut miles runAvg speedWind from/ knotsBaromVisibWave heightAir tempDewpointWater temp
2014-Nov-24 20:13N 38°53' W 073°59'4111.2
2014-Nov-24 16:32N 39°34' W 073°52'1414.3
2014-Nov-24 15:33N 39°48' W 073°51'1614.7
2014-Nov-24 14:30N 40°03' W 073°50'1511.1
2014-Nov-24 13:10N 40°18' W 073°49'6 9.2
2014-Nov-24 12:32N 40°24' W 073°48'7 6.9
2014-Nov-24 11:33N 40°29' W 073°54'1110.7
2014-Nov-24 10:34N 40°37' W 074°03'5 4.9
2014-Nov-24 09:33N 40°39' W 074°09'1 0.6
2014-Nov-24 08:33N 40°40' W 074°09'0 0.0
2014-Nov-24 07:33N 40°40' W 074°09'0 0.0
2014-Nov-24 06:33N 40°40' W 074°09'0 0.0
2014-Nov-24 05:33N 40°40' W 074°09'0 0.0
2014-Nov-24 04:33N 40°40' W 074°09'0 0.0
2014-Nov-24 03:33N 40°40' W 074°09'0 0.0
2014-Nov-24 02:33N 40°40' W 074°09'0 0.0
2014-Nov-24 01:33N 40°40' W 074°09'0 0.0
2014-Nov-24 00:33N 40°40' W 074°09'0 0.0
2014-Nov-23 23:33N 40°40' W 074°09'0 0.1
2014-Nov-23 22:33N 40°40' W 074°09'4 4.4
2014-Nov-23 21:33N 40°38' W 074°03'1111.3
2014-Nov-23 20:33N 40°29' W 073°54'11 8.9
2014-Nov-23 19:22N 40°27' W 073°41'9 9.4
2014-Nov-23 18:21N 40°28' W 073°28'2815.7
2014-Nov-23 16:33N 40°30' W 072°51'1717.5
2014-Nov-23 15:34N 40°31' W 072°28'1717.4
2014-Nov-23 14:34N 40°31' W 072°05'1717.3
2014-Nov-23 13:34N 40°32' W 071°43'1717.4
2014-Nov-23 12:34N 40°32' W 071°20'1717.4
2014-Nov-23 11:33N 40°33' W 070°57'1717.5
2014-Nov-23 10:34N 40°33' W 070°34'1817.5
2014-Nov-23 09:33N 40°33' W 070°11'1717.5
2014-Nov-23 08:34N 40°33' W 069°48'1717.2
2014-Nov-23 07:33N 40°33' W 069°25'1716.2
2014-Nov-23 06:30N 40°35' W 069°03'19915.9
2014-Nov-22 18:00N 42°12' W 065°12'90518.8 240 / 241024.010.8 7.0-0.011.0
2014-Nov-20 18:00N 47°48' W 045°24'   270 / 271022.910.8 10.0 5.6 8.0
2014-Nov-16 10:33N 58°44' W 004°13'1817.8
2014-Nov-16 09:34N 58°44' W 003°39'1918.8
2014-Nov-16 08:33N 58°43' W 003°02'1616.1
2014-Nov-16 07:33N 58°29' W 002°46'4915.6
2014-Nov-16 04:25N 57°57' W 001°35'1416.0
2014-Nov-16 03:33N 57°49' W 001°14'1616.0
2014-Nov-16 02:33N 57°39' W 000°51'32216.1
2014-Nov-15 06:31N 54°27' E 006°54'1617.1
2014-Nov-15 05:34N 54°18' E 007°16'1616.4
2014-Nov-15 04:33N 54°05' E 007°35'1615.7
2014-Nov-15 03:33N 53°52' E 007°50'1413.7
2014-Nov-15 02:33N 53°46' E 008°11'1413.9
2014-Nov-15 01:33N 53°37' E 008°29'2 2.2
2014-Nov-15 00:32N 53°36' E 008°31'0 0.0
2014-Nov-14 23:32N 53°36' E 008°31'0 0.0
2014-Nov-14 22:32N 53°36' E 008°31'0 0.0
2014-Nov-14 21:32N 53°36' E 008°31'0 0.0
2014-Nov-14 20:32N 53°36' E 008°31'  

Dump ship's entire track history